Time,TemperatureF,DewpointF,PressureIn,WindDirection,WindDirectionDegrees,WindSpeedMPH,WindSpeedGustMPH,Humidity,HourlyPrecipIn,Conditions,Clouds,dailyrainin,SoftwareType,DateUTC
2013-10-03 00:01:00,-999.0,-99.9,31.63,SSE,161,0.0,2.2,-999,0.00,,,0.00,meteobridge,2013-10-03 04:01:00,
2013-10-03 00:02:00,-999.0,-99.9,31.63,SSE,161,0.0,2.2,-999,0.00,,,0.00,meteobridge,2013-10-03 04:02:00,
2013-10-03 00:07:00,-999.0,-99.9,31.63,SSE,161,2.7,4.0,-999,0.00,,,0.00,meteobridge,2013-10-03 04:07:00,
2013-10-03 00:12:00,-999.0,-99.9,31.66,SE,138,2.7,4.0,-999,0.00,,,0.00,meteobridge,2013-10-03 04:12:00,
2013-10-03 00:17:00,69.6,64.6,31.66,East,85,4.0,4.0,84,0.00,,,0.00,meteobridge,2013-10-03 04:17:00,
2013-10-03 00:22:00,69.6,64.9,31.66,ENE,61,0.0,3.6,85,0.00,,,0.00,meteobridge,2013-10-03 04:22:00,
2013-10-03 00:27:00,69.6,64.9,31.66,ENE,61,2.7,2.7,85,0.00,,,0.00,meteobridge,2013-10-03 04:27:00,
2013-10-03 00:33:00,69.6,64.9,31.66,SSE,167,3.6,4.0,85,0.00,,,0.00,meteobridge,2013-10-03 04:33:00,
2013-10-03 00:38:00,69.6,64.9,31.66,SSE,153,3.1,3.6,85,0.00,,,0.00,meteobridge,2013-10-03 04:38:00,
2013-10-03 00:43:00,69.4,65.1,31.63,SE,129,5.4,8.1,86,0.00,,,0.00,meteobridge,2013-10-03 04:43:00,
2013-10-03 00:48:00,69.4,65.1,31.63,SSE,156,6.3,6.3,86,0.00,,,0.00,meteobridge,2013-10-03 04:48:00,
2013-10-03 00:53:00,69.4,65.1,31.63,SSW,204,5.4,6.3,86,0.00,,,0.00,meteobridge,2013-10-03 04:53:00,
2013-10-03 00:58:00,69.4,65.1,31.69,South,172,3.1,6.3,86,0.00,,,0.00,meteobridge,2013-10-03 04:58:00,
2013-10-03 01:03:00,69.3,65.3,31.69,South,180,6.3,6.3,87,0.00,,,0.00,meteobridge,2013-10-03 05:03:00,
2013-10-03 01:08:00,69.3,65.3,31.69,South,190,2.7,6.3,87,0.00,,,0.00,meteobridge,2013-10-03 05:08:00,
2013-10-03 01:13:00,69.3,65.3,31.78,SE,140,0.0,5.8,87,0.00,,,0.00,meteobridge,2013-10-03 05:13:00,
2013-10-03 01:18:00,69.3,65.3,31.78,SSE,154,2.7,3.6,87,0.00,,,0.00,meteobridge,2013-10-03 05:18:00,
2013-10-03 01:23:00,69.3,65.3,31.78,SE,144,3.6,4.0,87,0.00,,,0.00,meteobridge,2013-10-03 05:23:00,
2013-10-03 01:29:00,69.3,65.3,31.81,SSE,153,2.7,4.0,87,0.00,,,0.00,meteobridge,2013-10-03 05:29:00,
2013-10-03 01:34:00,69.3,65.3,31.81,SSE,154,0.0,4.0,87,0.00,,,0.00,meteobridge,2013-10-03 05:34:00,
2013-10-03 01:39:00,69.3,65.3,31.81,SSE,164,3.6,5.4,87,0.00,,,0.00,meteobridge,2013-10-03 05:39:00,
2013-10-03 01:44:00,69.3,65.3,31.84,South,186,2.7,3.1,87,0.00,,,0.00,meteobridge,2013-10-03 05:44:00,
2013-10-03 01:49:00,69.3,65.3,31.84,South,169,0.0,4.9,87,0.00,,,0.00,meteobridge,2013-10-03 05:49:00,
2013-10-03 01:54:00,69.3,65.3,31.84,South,169,2.7,2.7,87,0.00,,,0.00,meteobridge,2013-10-03 05:54:00,
2013-10-03 01:59:00,69.3,65.3,31.81,South,169,2.2,2.7,87,0.00,,,0.00,meteobridge,2013-10-03 05:59:00,
2013-10-03 02:04:00,69.3,65.3,31.81,SE,134,3.1,4.9,87,0.00,,,0.00,meteobridge,2013-10-03 06:04:00,
2013-10-03 02:09:00,69.1,65.1,31.81,SE,138,0.0,4.0,87,0.00,,,0.00,meteobridge,2013-10-03 06:09:00,
2013-10-03 02:14:00,69.1,65.1,31.78,SE,142,2.2,4.9,87,0.00,,,0.00,meteobridge,2013-10-03 06:14:00,
2013-10-03 02:19:00,69.1,65.1,31.78,South,171,4.0,5.8,87,0.00,,,0.00,meteobridge,2013-10-03 06:19:00,
2013-10-03 02:24:00,68.9,64.9,31.78,South,174,2.7,4.0,87,0.00,,,0.00,meteobridge,2013-10-03 06:24:00,
2013-10-03 02:29:00,68.9,64.9,31.78,SE,143,3.6,3.6,87,0.00,,,0.00,meteobridge,2013-10-03 06:29:00,
2013-10-03 02:34:00,68.9,64.9,31.78,SE,142,2.2,3.1,87,0.00,,,0.00,meteobridge,2013-10-03 06:34:00,
2013-10-03 02:40:00,68.9,64.9,31.78,SE,142,0.0,0.0,87,0.00,,,0.00,meteobridge,2013-10-03 06:40:00,
2013-10-03 02:45:00,68.9,64.9,31.81,SE,142,0.0,0.0,87,0.00,,,0.00,meteobridge,2013-10-03 06:45:00,
2013-10-03 02:50:00,68.9,64.9,31.81,SE,142,0.0,2.2,87,0.00,,,0.00,meteobridge,2013-10-03 06:50:00,
2013-10-03 02:55:00,68.7,64.8,31.81,SE,142,0.0,0.0,87,0.00,,,0.00,meteobridge,2013-10-03 06:55:00,
2013-10-03 03:00:00,68.9,64.9,31.81,SE,142,0.0,0.0,87,0.00,,,0.00,meteobridge,2013-10-03 07:00:00,
2013-10-03 03:05:00,68.7,64.8,31.81,SE,142,2.7,2.7,87,0.00,,,0.00,meteobridge,2013-10-03 07:05:00,
2013-10-03 03:10:00,68.7,64.8,31.81,SE,143,2.2,4.0,87,0.00,,,0.00,meteobridge,2013-10-03 07:10:00,
2013-10-03 03:15:00,68.5,64.6,31.75,South,177,2.2,4.0,87,0.00,,,0.00,meteobridge,2013-10-03 07:15:00,
2013-10-03 03:20:00,68.4,64.4,31.75,South,175,0.0,2.2,87,0.00,,,0.00,meteobridge,2013-10-03 07:20:00,
2013-10-03 03:25:00,68.4,64.4,31.75,South,175,2.7,3.1,87,0.00,,,0.00,meteobridge,2013-10-03 07:25:00,
2013-10-03 03:30:00,68.4,64.4,31.78,South,171,3.6,3.6,87,0.00,,,0.00,meteobridge,2013-10-03 07:30:00,
2013-10-03 03:35:00,68.4,64.4,31.78,South,171,0.0,0.0,87,0.00,,,0.00,meteobridge,2013-10-03 07:35:00,
2013-10-03 03:40:00,68.4,64.4,31.78,South,171,0.0,0.0,87,0.00,,,0.00,meteobridge,2013-10-03 07:40:00,
2013-10-03 03:45:00,68.4,64.4,31.81,South,171,0.0,0.0,87,0.00,,,0.00,meteobridge,2013-10-03 07:45:00,
2013-10-03 03:50:00,68.4,64.4,31.81,South,171,0.0,0.0,87,0.00,,,0.00,meteobridge,2013-10-03 07:50:00,
2013-10-03 03:55:00,68.4,64.4,31.81,South,171,0.0,0.0,87,0.00,,,0.00,meteobridge,2013-10-03 07:55:00,
2013-10-03 04:01:00,68.4,64.4,31.75,South,171,0.0,0.0,87,0.00,,,0.00,meteobridge,2013-10-03 08:01:00,
2013-10-03 04:06:00,68.4,64.4,31.75,South,171,0.0,0.0,87,0.00,,,0.00,meteobridge,2013-10-03 08:06:00,
2013-10-03 04:11:00,68.4,64.4,31.75,South,171,0.0,0.0,87,0.00,,,0.00,meteobridge,2013-10-03 08:11:00,
2013-10-03 04:16:00,68.4,64.4,31.78,South,171,0.0,0.0,87,0.00,,,0.00,meteobridge,2013-10-03 08:16:00,
2013-10-03 04:21:00,68.4,64.4,31.78,South,171,0.0,0.0,87,0.00,,,0.00,meteobridge,2013-10-03 08:21:00,
2013-10-03 04:26:00,68.4,64.4,31.81,South,171,0.0,0.0,87,0.00,,,0.00,meteobridge,2013-10-03 08:26:00,
2013-10-03 04:31:00,68.2,64.2,31.81,South,171,0.0,0.0,87,0.00,,,0.00,meteobridge,2013-10-03 08:31:00,
2013-10-03 04:36:00,68.2,64.2,31.81,South,171,0.0,0.0,87,0.00,,,0.00,meteobridge,2013-10-03 08:36:00,
2013-10-03 04:41:00,68.2,64.2,31.72,South,171,0.0,0.0,87,0.00,,,0.00,meteobridge,2013-10-03 08:41:00,
2013-10-03 04:46:00,68.0,64.0,31.72,South,171,0.0,2.7,87,0.00,,,0.00,meteobridge,2013-10-03 08:46:00,
2013-10-03 04:51:00,68.0,64.0,31.72,South,171,2.2,2.7,87,0.00,,,0.00,meteobridge,2013-10-03 08:51:00,
2013-10-03 04:56:00,67.8,63.9,31.75,South,171,2.7,2.7,87,0.00,,,0.00,meteobridge,2013-10-03 08:56:00,
2013-10-03 05:01:00,67.8,63.9,31.75,South,171,2.7,2.7,87,0.00,,,0.00,meteobridge,2013-10-03 09:01:00,
2013-10-03 05:06:00,67.8,63.9,31.75,South,171,0.0,2.7,87,0.00,,,0.00,meteobridge,2013-10-03 09:06:00,
2013-10-03 05:11:00,67.8,63.9,31.78,South,171,0.0,3.1,87,0.00,,,0.00,meteobridge,2013-10-03 09:11:00,
2013-10-03 05:17:00,67.8,63.9,31.78,South,171,4.0,4.0,87,0.00,,,0.00,meteobridge,2013-10-03 09:17:00,
2013-10-03 05:22:00,67.8,63.9,31.78,South,171,3.1,4.0,87,0.00,,,0.00,meteobridge,2013-10-03 09:22:00,
2013-10-03 05:27:00,67.6,63.7,31.69,SE,145,3.1,4.0,87,0.00,,,0.00,meteobridge,2013-10-03 09:27:00,
2013-10-03 05:32:00,67.8,63.9,31.69,SE,145,0.0,3.1,87,0.00,,,0.00,meteobridge,2013-10-03 09:32:00,
2013-10-03 05:37:00,67.6,63.7,31.69,SE,145,2.7,4.9,87,0.00,,,0.00,meteobridge,2013-10-03 09:37:00,
2013-10-03 05:42:00,67.6,63.7,31.78,SSE,165,3.1,4.0,87,0.00,,,0.00,meteobridge,2013-10-03 09:42:00,
2013-10-03 05:47:00,67.6,64.0,31.78,SSE,160,4.0,4.0,88,0.00,,,0.00,meteobridge,2013-10-03 09:47:00,
2013-10-03 05:52:00,67.6,64.0,31.78,South,190,4.0,4.0,88,0.00,,,0.00,meteobridge,2013-10-03 09:52:00,
2013-10-03 05:57:00,67.6,64.0,31.69,SSE,160,3.1,6.3,88,0.00,,,0.00,meteobridge,2013-10-03 09:57:00,
2013-10-03 06:02:00,67.6,64.0,31.69,South,191,4.0,5.4,88,0.00,,,0.00,meteobridge,2013-10-03 10:02:00,
2013-10-03 06:07:00,67.6,64.0,31.69,South,182,4.0,4.9,88,0.00,,,0.00,meteobridge,2013-10-03 10:07:00,
2013-10-03 06:12:00,67.6,64.0,31.78,South,182,4.0,5.8,88,0.00,,,0.00,meteobridge,2013-10-03 10:12:00,
2013-10-03 06:17:00,67.6,64.0,31.78,SSE,166,5.4,5.4,88,0.00,,,0.00,meteobridge,2013-10-03 10:17:00,
2013-10-03 06:22:00,67.6,64.0,31.78,SSE,154,4.9,5.8,88,0.00,,,0.00,meteobridge,2013-10-03 10:22:00,
2013-10-03 06:28:00,67.6,64.0,31.69,South,171,3.1,4.0,88,0.00,,,0.00,meteobridge,2013-10-03 10:28:00,
2013-10-03 06:33:00,67.6,64.0,31.69,SSW,197,2.2,3.1,88,0.00,,,0.00,meteobridge,2013-10-03 10:33:00,
2013-10-03 06:38:00,67.6,64.0,31.69,South,175,4.0,4.0,88,0.00,,,0.00,meteobridge,2013-10-03 10:38:00,
2013-10-03 06:43:00,67.6,64.0,31.78,South,186,2.7,3.1,88,0.00,,,0.00,meteobridge,2013-10-03 10:43:00,
2013-10-03 06:48:00,67.6,64.0,31.78,South,186,3.1,4.5,88,0.00,,,0.00,meteobridge,2013-10-03 10:48:00,
2013-10-03 06:53:00,67.6,64.0,31.78,South,186,3.6,3.6,88,0.00,,,0.00,meteobridge,2013-10-03 10:53:00,
2013-10-03 06:58:00,67.6,64.0,31.69,SSW,213,0.0,4.9,88,0.00,,,0.00,meteobridge,2013-10-03 10:58:00,
2013-10-03 07:03:00,67.6,64.0,31.69,South,179,3.6,4.0,88,0.00,,,0.00,meteobridge,2013-10-03 11:03:00,
2013-10-03 07:08:00,67.6,64.2,31.69,SW,218,2.7,3.6,89,0.00,,,0.00,meteobridge,2013-10-03 11:08:00,
2013-10-03 07:13:00,67.5,64.0,31.78,SSW,206,0.0,3.6,89,0.00,,,0.00,meteobridge,2013-10-03 11:13:00,
2013-10-03 07:18:00,67.5,64.0,31.78,SSW,205,3.1,3.6,89,0.00,,,0.00,meteobridge,2013-10-03 11:18:00,
2013-10-03 07:23:00,67.5,64.0,31.78,SSW,205,0.0,3.6,89,0.00,,,0.00,meteobridge,2013-10-03 11:23:00,
2013-10-03 07:28:00,67.5,64.0,31.69,SSW,205,3.1,3.6,89,0.00,,,0.00,meteobridge,2013-10-03 11:28:00,
2013-10-03 07:33:00,67.5,64.0,31.69,SSW,197,3.1,4.9,89,0.00,,,0.00,meteobridge,2013-10-03 11:33:00,
2013-10-03 07:38:00,67.5,64.0,31.69,SSW,198,3.6,4.0,89,0.00,,,0.00,meteobridge,2013-10-03 11:38:00,
2013-10-03 07:43:00,67.5,64.0,31.78,SSW,194,3.6,4.0,89,0.00,,,0.00,meteobridge,2013-10-03 11:43:00,
2013-10-03 07:49:00,67.5,64.0,31.78,South,173,3.1,4.0,89,0.00,,,0.00,meteobridge,2013-10-03 11:49:00,
2013-10-03 07:54:00,67.5,64.0,31.78,SSW,198,4.9,4.9,89,0.00,,,0.00,meteobridge,2013-10-03 11:54:00,
2013-10-03 07:59:00,67.5,64.0,31.66,South,185,2.2,3.1,89,0.00,,,0.00,meteobridge,2013-10-03 11:59:00,
2013-10-03 08:04:00,67.5,64.0,31.66,South,185,0.0,3.6,89,0.00,,,0.00,meteobridge,2013-10-03 12:04:00,
2013-10-03 08:09:00,67.5,64.4,31.66,South,175,5.4,5.4,90,0.00,,,0.00,meteobridge,2013-10-03 12:09:00,
2013-10-03 08:14:00,67.5,64.4,31.57,SSE,168,3.1,4.5,90,0.00,,,0.00,meteobridge,2013-10-03 12:14:00,
2013-10-03 08:19:00,67.5,64.4,31.57,SSE,156,3.1,4.9,90,0.00,,,0.00,meteobridge,2013-10-03 12:19:00,
2013-10-03 08:24:00,67.3,64.2,31.57,South,185,3.1,4.9,90,0.00,,,0.00,meteobridge,2013-10-03 12:24:00,
2013-10-03 08:29:00,67.5,64.4,31.54,South,191,3.1,4.9,90,0.00,,,0.00,meteobridge,2013-10-03 12:29:00,
2013-10-03 08:34:00,67.5,64.4,31.54,South,174,4.0,4.9,90,0.00,,,0.00,meteobridge,2013-10-03 12:34:00,
2013-10-03 08:39:00,67.5,64.4,31.54,SSE,163,4.0,4.0,90,0.00,,,0.00,meteobridge,2013-10-03 12:39:00,
2013-10-03 08:44:00,67.5,64.4,31.66,South,185,3.1,4.9,90,0.00,,,0.00,meteobridge,2013-10-03 12:44:00,
2013-10-03 08:49:00,67.6,64.6,31.66,SW,214,4.0,5.4,90,0.00,,,0.00,meteobridge,2013-10-03 12:49:00,
2013-10-03 08:54:00,67.6,64.6,31.66,SW,214,4.9,5.4,90,0.00,,,0.00,meteobridge,2013-10-03 12:54:00,
2013-10-03 08:59:00,67.6,64.6,31.54,South,188,4.0,4.9,90,0.00,,,0.00,meteobridge,2013-10-03 12:59:00,
2013-10-03 09:04:00,67.8,64.8,31.54,SSW,209,2.7,5.8,90,0.00,,,0.00,meteobridge,2013-10-03 13:04:00,
2013-10-03 09:13:00,67.8,64.8,31.48,SSE,166,5.8,7.6,90,0.00,,,0.00,meteobridge,2013-10-03 13:13:00,
2013-10-03 09:18:00,68.0,64.9,31.48,SSE,157,3.6,4.0,90,0.00,,,0.00,meteobridge,2013-10-03 13:18:00,
2013-10-03 09:23:00,68.0,64.9,31.48,SSW,209,3.1,4.0,90,0.00,,,0.00,meteobridge,2013-10-03 13:23:00,
2013-10-03 09:28:00,68.2,65.1,31.54,South,177,3.6,4.0,90,0.00,,,0.00,meteobridge,2013-10-03 13:28:00,
2013-10-03 09:33:00,68.4,65.3,31.54,SSW,198,4.0,6.3,90,0.00,,,0.00,meteobridge,2013-10-03 13:33:00,
2013-10-03 09:38:00,68.5,65.5,31.54,SSW,194,7.6,7.6,90,0.00,,,0.00,meteobridge,2013-10-03 13:38:00,
2013-10-03 09:50:00,68.7,65.7,31.51,SW,218,5.8,6.3,90,0.00,,,0.00,meteobridge,2013-10-03 13:50:00,
2013-10-03 09:55:00,68.9,65.8,31.51,SSW,193,4.0,6.3,90,0.00,,,0.00,meteobridge,2013-10-03 13:55:00,
2013-10-03 10:01:00,69.1,66.4,31.51,SSE,168,4.0,6.3,91,0.00,,,0.00,meteobridge,2013-10-03 14:01:00,
2013-10-03 10:06:00,69.3,66.6,31.51,SSW,203,6.3,6.3,91,0.00,,,0.00,meteobridge,2013-10-03 14:06:00,
2013-10-03 10:11:00,69.4,66.7,31.60,SSW,197,4.9,5.8,91,0.00,,,0.00,meteobridge,2013-10-03 14:11:00,
2013-10-03 10:16:00,69.6,66.9,31.60,SSW,207,5.4,8.7,91,0.00,,,0.00,meteobridge,2013-10-03 14:16:00,
2013-10-03 10:21:00,69.8,66.7,31.60,SSW,200,5.8,8.1,90,0.00,,,0.00,meteobridge,2013-10-03 14:21:00,
2013-10-03 10:26:00,70.2,67.1,31.57,SSW,206,3.1,4.0,90,0.00,,,0.00,meteobridge,2013-10-03 14:26:00,
2013-10-03 10:31:00,70.3,67.3,31.57,South,188,2.7,5.4,90,0.00,,,0.00,meteobridge,2013-10-03 14:31:00,
2013-10-03 10:36:00,70.5,67.5,31.57,SW,225,5.4,6.7,90,0.00,,,0.00,meteobridge,2013-10-03 14:36:00,
2013-10-03 10:41:00,70.9,67.8,31.57,SW,219,2.7,5.8,90,0.00,,,0.00,meteobridge,2013-10-03 14:41:00,
2013-10-03 10:47:00,71.2,68.2,31.57,South,190,7.6,8.3,90,0.00,,,0.00,meteobridge,2013-10-03 14:47:00,
2013-10-03 10:52:00,71.4,68.0,31.57,SW,217,5.8,8.7,89,0.00,,,0.00,meteobridge,2013-10-03 14:52:00,
2013-10-03 10:57:00,71.6,68.2,31.60,SW,221,4.0,9.6,89,0.00,,,0.00,meteobridge,2013-10-03 14:57:00,
2013-10-03 11:02:00,72.1,68.7,31.60,SSW,197,8.3,10.1,89,0.00,,,0.00,meteobridge,2013-10-03 15:02:00,
2013-10-03 11:07:00,72.3,68.5,31.60,SSE,155,6.3,10.5,88,0.00,,,0.00,meteobridge,2013-10-03 15:07:00,
2013-10-03 11:12:00,72.7,68.9,31.57,South,172,8.3,8.3,88,0.00,,,0.00,meteobridge,2013-10-03 15:12:00,
2013-10-03 11:17:00,72.9,68.7,31.57,SW,224,5.8,8.1,87,0.00,,,0.00,meteobridge,2013-10-03 15:17:00,
2013-10-03 11:22:00,73.2,69.1,31.57,SW,231,8.3,8.3,87,0.00,,,0.00,meteobridge,2013-10-03 15:22:00,
2013-10-03 11:28:00,73.4,68.9,31.54,South,187,5.4,8.3,86,0.00,,,0.00,meteobridge,2013-10-03 15:28:00,
2013-10-03 11:33:00,73.2,68.4,31.54,SW,218,4.0,6.3,85,0.00,,,0.00,meteobridge,2013-10-03 15:33:00,
2013-10-03 11:38:00,73.4,68.2,31.54,SSW,208,6.3,11.0,84,0.00,,,0.00,meteobridge,2013-10-03 15:38:00,
2013-10-03 11:43:00,73.6,68.2,31.54,South,190,8.7,8.7,83,0.00,,,0.00,meteobridge,2013-10-03 15:43:00,
2013-10-03 11:48:00,73.9,67.8,31.54,SSW,197,7.6,8.7,81,0.00,,,0.00,meteobridge,2013-10-03 15:48:00,
2013-10-03 11:53:00,74.1,67.6,31.54,SW,220,11.0,11.0,80,0.00,,,0.00,meteobridge,2013-10-03 15:53:00,
2013-10-03 11:58:00,74.3,67.3,31.54,SSW,203,11.0,11.0,79,0.00,,,0.00,meteobridge,2013-10-03 15:58:00,
2013-10-03 12:03:00,74.5,66.7,31.54,SW,225,7.6,11.0,77,0.00,,,0.00,meteobridge,2013-10-03 16:03:00,
2013-10-03 12:08:00,74.7,66.6,31.54,SSE,165,7.6,8.3,76,0.00,,,0.00,meteobridge,2013-10-03 16:08:00,
2013-10-03 12:13:00,75.0,66.6,31.60,SSW,198,8.7,12.3,75,0.00,,,0.00,meteobridge,2013-10-03 16:13:00,
2013-10-03 12:18:00,75.0,66.6,31.60,SW,231,5.8,11.9,75,0.00,,,0.00,meteobridge,2013-10-03 16:18:00,
2013-10-03 12:24:00,75.2,66.4,31.60,SW,236,10.5,11.4,74,0.00,,,0.00,meteobridge,2013-10-03 16:24:00,
2013-10-03 12:29:00,75.4,66.2,31.63,SW,221,6.7,8.7,73,0.00,,,0.00,meteobridge,2013-10-03 16:29:00,
2013-10-03 12:34:00,75.6,66.7,31.63,SSW,206,4.9,8.1,74,0.00,,,0.00,meteobridge,2013-10-03 16:34:00,
2013-10-03 12:39:00,75.6,66.7,31.63,SSW,202,8.1,11.0,74,0.00,,,0.00,meteobridge,2013-10-03 16:39:00,
2013-10-03 12:44:00,75.4,66.2,31.60,South,187,3.6,8.3,73,0.00,,,0.00,meteobridge,2013-10-03 16:44:00,
2013-10-03 12:49:00,75.4,65.7,31.60,SSE,161,11.0,11.0,72,0.00,,,0.00,meteobridge,2013-10-03 16:49:00,
2013-10-03 12:54:00,75.4,65.3,31.60,SSW,195,8.3,12.3,71,0.00,,,0.00,meteobridge,2013-10-03 16:54:00,
2013-10-03 12:59:00,-999.0,-99.9,31.69,SSW,206,7.6,11.0,-999,0.00,,,0.00,meteobridge,2013-10-03 16:59:00,
2013-10-03 13:04:00,75.4,65.3,31.69,South,186,7.6,10.1,71,0.00,,,0.00,meteobridge,2013-10-03 17:04:00,
2013-10-03 13:09:00,75.6,65.5,31.69,SSW,195,6.7,6.7,71,0.00,,,0.00,meteobridge,2013-10-03 17:09:00,
2013-10-03 13:14:00,75.9,65.8,31.75,SW,222,6.3,11.4,71,0.00,,,0.00,meteobridge,2013-10-03 17:14:00,
2013-10-03 13:19:00,76.1,65.7,31.75,SW,226,11.0,15.4,70,0.00,,,0.00,meteobridge,2013-10-03 17:19:00,
2013-10-03 13:24:00,76.1,65.7,31.75,SW,217,6.3,8.1,70,0.00,,,0.00,meteobridge,2013-10-03 17:24:00,
2013-10-03 13:29:00,76.1,65.7,31.69,SW,220,8.1,8.3,70,0.00,,,0.00,meteobridge,2013-10-03 17:29:00,
2013-10-03 13:34:00,76.1,65.7,31.69,South,191,3.1,8.7,70,0.00,,,0.00,meteobridge,2013-10-03 17:34:00,
2013-10-03 13:39:00,76.3,65.8,31.69,SW,227,4.0,8.1,70,0.00,,,0.00,meteobridge,2013-10-03 17:39:00,
2013-10-03 13:44:00,76.3,65.3,31.81,SSW,194,11.0,11.0,69,0.00,,,0.00,meteobridge,2013-10-03 17:44:00,
2013-10-03 13:49:00,76.3,65.8,31.81,NNW,333,6.3,10.5,70,0.00,,,0.00,meteobridge,2013-10-03 17:49:00,
2013-10-03 13:55:00,76.3,65.3,31.81,SW,232,8.7,8.7,69,0.00,,,0.00,meteobridge,2013-10-03 17:55:00,
2013-10-03 14:00:00,-999.0,-99.9,31.75,SW,224,8.1,11.0,-999,0.00,,,0.00,meteobridge,2013-10-03 18:00:00,
2013-10-03 14:05:00,-999.0,-99.9,31.75,South,182,11.4,11.4,-999,0.00,,,0.00,meteobridge,2013-10-03 18:05:00,
2013-10-03 14:10:00,-999.0,-99.9,31.75,WSW,238,6.3,8.7,-999,0.00,,,0.00,meteobridge,2013-10-03 18:10:00,
2013-10-03 14:15:00,-999.0,-99.9,31.84,SSW,208,5.8,9.2,-999,0.00,,,0.00,meteobridge,2013-10-03 18:15:00,
2013-10-03 14:20:00,77.5,65.3,31.84,South,181,7.6,7.6,66,0.00,,,0.00,meteobridge,2013-10-03 18:20:00,
2013-10-03 14:25:00,77.9,65.7,31.84,SSW,207,7.6,8.1,66,0.00,,,0.00,meteobridge,2013-10-03 18:25:00,
2013-10-03 14:30:00,77.9,65.1,31.78,SW,219,8.3,12.3,65,0.00,,,0.00,meteobridge,2013-10-03 18:30:00,
2013-10-03 14:35:00,78.1,64.9,31.78,SSW,203,10.1,12.3,64,0.00,,,0.00,meteobridge,2013-10-03 18:35:00,
2013-10-03 14:40:00,78.8,65.7,31.78,South,181,5.8,10.5,64,0.00,,,0.00,meteobridge,2013-10-03 18:40:00,
2013-10-03 14:45:00,79.5,65.3,31.84,SSW,195,10.5,13.2,62,0.00,,,0.00,meteobridge,2013-10-03 18:45:00,
2013-10-03 14:50:00,79.7,65.1,31.84,SW,218,5.4,8.7,61,0.00,,,0.00,meteobridge,2013-10-03 18:50:00,
2013-10-03 14:56:00,79.7,65.1,31.87,WSW,237,4.0,10.1,61,0.00,,,0.00,meteobridge,2013-10-03 18:56:00,
2013-10-03 15:01:00,79.7,65.1,31.87,SW,228,5.4,10.5,61,0.00,,,0.00,meteobridge,2013-10-03 19:01:00,
2013-10-03 15:06:00,79.7,65.1,31.87,WSW,237,6.3,15.0,61,0.00,,,0.00,meteobridge,2013-10-03 19:06:00,
2013-10-03 15:11:00,79.3,64.2,31.87,SW,224,6.3,12.8,60,0.00,,,0.00,meteobridge,2013-10-03 19:11:00,
2013-10-03 15:16:00,79.3,64.2,31.69,SSW,192,5.4,8.3,60,0.00,,,0.00,meteobridge,2013-10-03 19:16:00,
2013-10-03 15:21:00,80.1,64.9,31.69,SSW,194,5.8,12.8,60,0.00,,,0.00,meteobridge,2013-10-03 19:21:00,
2013-10-03 15:26:00,80.8,65.1,31.45,SSW,207,5.8,12.8,59,0.00,,,0.00,meteobridge,2013-10-03 19:26:00,
2013-10-03 15:31:00,80.6,64.4,31.45,SW,229,5.4,14.1,58,0.00,,,0.00,meteobridge,2013-10-03 19:31:00,
2013-10-03 15:36:00,80.6,64.4,31.45,South,182,5.8,10.5,58,0.00,,,0.00,meteobridge,2013-10-03 19:36:00,
2013-10-03 15:41:00,80.6,64.4,31.30,South,172,8.1,8.1,58,0.00,,,0.00,meteobridge,2013-10-03 19:41:00,
2013-10-03 15:46:00,80.4,64.8,31.30,SSW,194,4.0,5.4,59,0.00,,,0.00,meteobridge,2013-10-03 19:46:00,
2013-10-03 15:51:00,80.2,64.0,31.30,SSW,199,8.7,8.7,58,0.00,,,0.00,meteobridge,2013-10-03 19:51:00,
2013-10-03 15:56:00,80.2,64.0,31.25,South,176,3.1,7.6,58,0.00,,,0.00,meteobridge,2013-10-03 19:56:00,
2013-10-03 16:01:00,80.4,64.2,31.25,WSW,245,8.3,10.5,58,0.00,,,0.00,meteobridge,2013-10-03 20:01:00,
2013-10-03 16:06:00,80.6,64.0,31.25,SSW,195,5.8,10.5,57,0.00,,,0.00,meteobridge,2013-10-03 20:06:00,
2013-10-03 16:12:00,80.8,64.0,31.22,South,173,4.0,5.8,57,0.00,,,0.00,meteobridge,2013-10-03 20:12:00,
2013-10-03 16:17:00,81.0,64.2,31.22,SSE,157,6.7,8.1,57,0.00,,,0.00,meteobridge,2013-10-03 20:17:00,
2013-10-03 16:22:00,80.8,63.1,31.22,South,184,7.6,8.3,55,0.00,,,0.00,meteobridge,2013-10-03 20:22:00,
2013-10-03 16:27:00,80.6,62.4,31.19,SW,217,7.6,11.0,54,0.00,,,0.00,meteobridge,2013-10-03 20:27:00,
2013-10-03 16:32:00,80.6,62.4,31.19,SSW,208,5.4,10.5,54,0.00,,,0.00,meteobridge,2013-10-03 20:32:00,
2013-10-03 16:37:00,81.0,61.7,31.19,South,170,10.1,12.8,52,0.00,,,0.00,meteobridge,2013-10-03 20:37:00,
2013-10-03 16:42:00,80.6,61.3,31.16,SW,231,5.8,15.4,52,0.00,,,0.00,meteobridge,2013-10-03 20:42:00,
2013-10-03 16:47:00,80.6,61.3,31.16,SW,228,10.1,11.0,52,0.00,,,0.00,meteobridge,2013-10-03 20:47:00,
2013-10-03 16:52:00,80.4,62.2,31.16,South,172,10.5,10.5,54,0.00,,,0.00,meteobridge,2013-10-03 20:52:00,
2013-10-03 16:57:00,80.4,62.8,31.22,SSW,211,8.7,8.7,55,0.00,,,0.00,meteobridge,2013-10-03 20:57:00,
2013-10-03 17:02:00,-999.0,-99.9,31.22,South,179,10.5,12.8,-999,0.00,,,0.00,meteobridge,2013-10-03 21:02:00,
2013-10-03 17:07:00,-999.0,-99.9,31.22,South,169,7.6,12.3,-999,0.00,,,0.00,meteobridge,2013-10-03 21:07:00,
2013-10-03 17:12:00,-999.0,-99.9,31.28,South,190,8.7,8.7,-999,0.00,,,0.00,meteobridge,2013-10-03 21:12:00,
2013-10-03 17:17:00,-999.0,-99.9,31.28,SW,215,6.3,10.5,-999,0.00,,,0.00,meteobridge,2013-10-03 21:17:00,
2013-10-03 17:22:00,-999.0,-99.9,31.28,South,175,8.1,10.1,-999,0.00,,,0.00,meteobridge,2013-10-03 21:22:00,
2013-10-03 17:27:00,-999.0,-99.9,31.33,SSE,150,8.3,12.3,-999,0.00,,,0.00,meteobridge,2013-10-03 21:27:00,
2013-10-03 17:33:00,-999.0,-99.9,31.33,South,190,5.4,11.9,-999,0.00,,,0.00,meteobridge,2013-10-03 21:33:00,
2013-10-03 17:38:00,-999.0,-99.9,31.33,SW,229,5.4,12.3,-999,0.00,,,0.00,meteobridge,2013-10-03 21:38:00,
2013-10-03 17:43:00,-999.0,-99.9,31.36,SW,220,9.6,9.6,-999,0.00,,,0.00,meteobridge,2013-10-03 21:43:00,
2013-10-03 17:48:00,-999.0,-99.9,31.36,SW,224,5.8,8.1,-999,0.00,,,0.00,meteobridge,2013-10-03 21:48:00,
2013-10-03 17:53:00,-999.0,-99.9,31.36,South,170,8.1,12.8,-999,0.00,,,0.00,meteobridge,2013-10-03 21:53:00,
2013-10-03 17:58:00,-999.0,-99.9,31.33,WSW,239,6.3,8.7,-999,0.00,,,0.00,meteobridge,2013-10-03 21:58:00,
2013-10-03 18:03:00,-999.0,-99.9,31.33,SSW,209,8.1,10.5,-999,0.00,,,0.00,meteobridge,2013-10-03 22:03:00,
2013-10-03 18:08:00,-999.0,-99.9,31.33,South,183,5.4,8.1,-999,0.00,,,0.00,meteobridge,2013-10-03 22:08:00,
2013-10-03 18:13:00,-999.0,-99.9,31.39,SSW,194,8.1,8.7,-999,0.00,,,0.00,meteobridge,2013-10-03 22:13:00,
2013-10-03 18:18:00,-999.0,-99.9,31.39,South,177,8.7,11.0,-999,0.00,,,0.00,meteobridge,2013-10-03 22:18:00,
2013-10-03 18:23:00,-999.0,-99.9,31.39,SSW,200,10.5,12.3,-999,0.00,,,0.00,meteobridge,2013-10-03 22:23:00,
2013-10-03 18:29:00,-999.0,-99.9,31.45,SSW,212,6.3,7.6,-999,0.00,,,0.00,meteobridge,2013-10-03 22:29:00,
2013-10-03 18:34:00,-999.0,-99.9,31.45,South,189,5.4,6.3,-999,0.00,,,0.00,meteobridge,2013-10-03 22:34:00,
2013-10-03 18:39:00,78.6,64.6,31.45,SSE,164,5.8,6.3,62,0.00,,,0.00,meteobridge,2013-10-03 22:39:00,
2013-10-03 18:44:00,-999.0,-99.9,31.51,SSE,147,5.8,10.5,-999,0.00,,,0.00,meteobridge,2013-10-03 22:44:00,
2013-10-03 18:49:00,-999.0,-99.9,31.51,South,179,5.4,8.3,-999,0.00,,,0.00,meteobridge,2013-10-03 22:49:00,
2013-10-03 18:54:00,-999.0,-99.9,31.51,South,184,4.0,7.2,-999,0.00,,,0.00,meteobridge,2013-10-03 22:54:00,
2013-10-03 18:59:00,-999.0,-99.9,31.57,South,172,6.3,8.3,-999,0.00,,,0.00,meteobridge,2013-10-03 22:59:00,
2013-10-03 19:04:00,-999.0,-99.9,31.57,South,170,7.6,8.1,-999,0.00,,,0.00,meteobridge,2013-10-03 23:04:00,
2013-10-03 19:09:00,-999.0,-99.9,31.57,South,185,5.8,8.1,-999,0.00,,,0.00,meteobridge,2013-10-03 23:09:00,
2013-10-03 19:15:00,77.5,64.4,31.54,SSE,154,6.3,8.7,64,0.00,,,0.00,meteobridge,2013-10-03 23:15:00,
2013-10-03 19:20:00,77.4,64.8,31.54,South,186,5.4,8.3,65,0.00,,,0.00,meteobridge,2013-10-03 23:20:00,
2013-10-03 19:25:00,77.4,64.8,31.54,SE,138,5.4,6.3,65,0.00,,,0.00,meteobridge,2013-10-03 23:25:00,
2013-10-03 19:30:00,76.8,64.6,31.60,SE,145,3.6,5.4,66,0.00,,,0.00,meteobridge,2013-10-03 23:30:00,
2013-10-03 19:35:00,76.6,64.4,31.60,SSE,152,6.3,8.1,66,0.00,,,0.00,meteobridge,2013-10-03 23:35:00,
2013-10-03 19:40:00,76.6,64.4,31.60,SSE,165,3.6,5.8,66,0.00,,,0.00,meteobridge,2013-10-03 23:40:00,
2013-10-03 19:45:00,-999.0,-99.9,31.57,SE,143,5.8,6.3,-999,0.00,,,0.00,meteobridge,2013-10-03 23:45:00,
2013-10-03 19:50:00,76.3,64.6,31.57,SSE,149,2.7,4.9,67,0.00,,,0.00,meteobridge,2013-10-03 23:50:00,
2013-10-03 19:55:00,-999.0,-99.9,31.57,SSE,167,6.3,6.3,-999,0.00,,,0.00,meteobridge,2013-10-03 23:55:00,
2013-10-03 20:00:00,-999.0,-99.9,31.60,SSE,168,4.0,5.4,-999,0.00,,,0.00,meteobridge,2013-10-04 00:00:00,
2013-10-03 20:05:00,-999.0,-99.9,31.60,SSE,159,4.0,5.8,-999,0.00,,,0.00,meteobridge,2013-10-04 00:05:00,
2013-10-03 20:10:00,75.9,64.6,31.60,SSE,160,4.9,5.4,68,0.00,,,0.00,meteobridge,2013-10-04 00:10:00,
2013-10-03 20:15:00,75.9,64.6,31.66,SSE,164,3.1,3.1,68,0.00,,,0.00,meteobridge,2013-10-04 00:15:00,
2013-10-03 20:20:00,-999.0,-99.9,31.66,South,169,2.7,5.4,-999,0.00,,,0.00,meteobridge,2013-10-04 00:20:00,
2013-10-03 20:25:00,-999.0,-99.9,31.66,SSW,208,5.4,6.3,-999,0.00,,,0.00,meteobridge,2013-10-04 00:25:00,
2013-10-03 20:31:00,75.4,64.0,31.66,South,189,4.9,5.8,68,0.00,,,0.00,meteobridge,2013-10-04 00:31:00,
2013-10-03 20:36:00,-999.0,-99.9,31.66,SE,146,6.3,6.3,-999,0.00,,,0.00,meteobridge,2013-10-04 00:36:00,
2013-10-03 20:41:00,75.2,64.4,31.69,South,184,4.9,5.4,69,0.00,,,0.00,meteobridge,2013-10-04 00:41:00,
2013-10-03 20:46:00,75.0,64.2,31.69,SE,141,3.6,5.8,69,0.00,,,0.00,meteobridge,2013-10-04 00:46:00,
2013-10-03 20:51:00,74.8,64.4,31.69,SSE,164,3.6,7.2,70,0.00,,,0.00,meteobridge,2013-10-04 00:51:00,
2013-10-03 20:56:00,-999.0,-99.9,31.72,SSE,152,5.8,6.3,-999,0.00,,,0.00,meteobridge,2013-10-04 00:56:00,
2013-10-03 21:01:00,-999.0,-99.9,31.72,SSW,209,6.3,6.3,-999,0.00,,,0.00,meteobridge,2013-10-04 01:01:00,
2013-10-03 21:06:00,74.5,64.0,31.72,SSE,157,4.0,5.8,70,0.00,,,0.00,meteobridge,2013-10-04 01:06:00,
2013-10-03 21:11:00,74.3,63.9,31.72,South,172,4.0,6.3,70,0.00,,,0.00,meteobridge,2013-10-04 01:11:00,
2013-10-03 21:16:00,-999.0,-99.9,31.72,SSE,156,4.9,6.3,-999,0.00,,,0.00,meteobridge,2013-10-04 01:16:00,
2013-10-03 21:21:00,73.9,63.9,31.72,SSE,167,3.6,5.4,71,0.00,,,0.00,meteobridge,2013-10-04 01:21:00,
2013-10-03 21:26:00,-999.0,-99.9,31.72,SSW,203,3.1,5.4,-999,0.00,,,0.00,meteobridge,2013-10-04 01:26:00,
2013-10-03 21:31:00,-999.0,-99.9,31.72,South,191,4.0,5.8,-999,0.00,,,0.00,meteobridge,2013-10-04 01:31:00,
2013-10-03 21:36:00,-999.0,-99.9,31.72,SSE,151,5.8,5.8,-999,0.00,,,0.00,meteobridge,2013-10-04 01:36:00,
2013-10-03 21:41:00,-999.0,-99.9,31.78,SSE,152,4.0,4.0,-999,0.00,,,0.00,meteobridge,2013-10-04 01:41:00,
2013-10-03 21:47:00,73.4,63.9,31.78,SSE,161,3.6,5.8,72,0.00,,,0.00,meteobridge,2013-10-04 01:47:00,
2013-10-03 21:52:00,73.4,63.9,31.78,SSE,157,5.4,5.4,72,0.00,,,0.00,meteobridge,2013-10-04 01:52:00,
2013-10-03 21:57:00,73.2,64.0,31.78,SSE,167,5.4,5.4,73,0.00,,,0.00,meteobridge,2013-10-04 01:57:00,
2013-10-03 22:02:00,-999.0,-99.9,31.78,SSE,161,3.1,4.9,-999,0.00,,,0.00,meteobridge,2013-10-04 02:02:00,
2013-10-03 22:07:00,-999.0,-99.9,31.78,SSE,157,5.4,5.4,-999,0.00,,,0.00,meteobridge,2013-10-04 02:07:00,
2013-10-03 22:12:00,-999.0,-99.9,31.75,South,187,5.4,5.4,-999,0.00,,,0.00,meteobridge,2013-10-04 02:12:00,
2013-10-03 22:17:00,-999.0,-99.9,31.75,SSW,202,3.1,6.3,-999,0.00,,,0.00,meteobridge,2013-10-04 02:17:00,
2013-10-03 22:22:00,72.9,64.0,31.75,SE,132,0.0,4.9,74,0.00,,,0.00,meteobridge,2013-10-04 02:22:00,
2013-10-03 22:27:00,-999.0,-99.9,31.75,South,179,4.9,4.9,-999,0.00,,,0.00,meteobridge,2013-10-04 02:27:00,
2013-10-03 22:32:00,72.7,64.2,31.75,SSE,157,4.9,6.3,75,0.00,,,0.00,meteobridge,2013-10-04 02:32:00,
2013-10-03 22:37:00,72.7,64.2,31.75,SE,130,4.9,4.9,75,0.00,,,0.00,meteobridge,2013-10-04 02:37:00,
2013-10-03 22:42:00,-999.0,-99.9,31.78,SE,143,4.0,4.5,-999,0.00,,,0.00,meteobridge,2013-10-04 02:42:00,
2013-10-03 22:47:00,-999.0,-99.9,31.78,SSE,158,2.7,4.0,-999,0.00,,,0.00,meteobridge,2013-10-04 02:47:00,
2013-10-03 22:52:00,-999.0,-99.9,31.78,SSE,162,2.7,6.3,-999,0.00,,,0.00,meteobridge,2013-10-04 02:52:00,
2013-10-03 22:57:00,-999.0,-99.9,31.75,South,171,3.6,6.3,-999,0.00,,,0.00,meteobridge,2013-10-04 02:57:00,
2013-10-03 23:02:00,-999.0,-99.9,31.75,SSE,147,5.8,6.3,-999,0.00,,,0.00,meteobridge,2013-10-04 03:02:00,
2013-10-03 23:08:00,-999.0,-99.9,31.75,South,189,3.6,5.8,-999,0.00,,,0.00,meteobridge,2013-10-04 03:08:00,
2013-10-03 23:13:00,-999.0,-99.9,31.75,SSE,165,5.4,5.8,-999,0.00,,,0.00,meteobridge,2013-10-04 03:13:00,
2013-10-03 23:18:00,-999.0,-99.9,31.75,SSE,165,4.0,6.3,-999,0.00,,,0.00,meteobridge,2013-10-04 03:18:00,
2013-10-03 23:23:00,-999.0,-99.9,31.75,South,179,2.7,5.8,-999,0.00,,,0.00,meteobridge,2013-10-04 03:23:00,
2013-10-03 23:28:00,71.4,63.9,31.78,South,173,2.7,5.4,77,0.00,,,0.00,meteobridge,2013-10-04 03:28:00,
2013-10-03 23:33:00,71.4,64.2,31.78,SSE,149,4.0,5.4,78,0.00,,,0.00,meteobridge,2013-10-04 03:33:00,
2013-10-03 23:38:00,71.4,64.2,31.78,South,169,5.4,5.4,78,0.00,,,0.00,meteobridge,2013-10-04 03:38:00,
2013-10-03 23:43:00,-999.0,-99.9,31.78,South,190,3.6,5.4,-999,0.00,,,0.00,meteobridge,2013-10-04 03:43:00,
2013-10-03 23:48:00,-999.0,-99.9,31.78,SSE,166,4.9,5.4,-999,0.00,,,0.00,meteobridge,2013-10-04 03:48:00,
2013-10-03 23:53:00,-999.0,-99.9,31.78,South,171,3.6,6.3,-999,0.00,,,0.00,meteobridge,2013-10-04 03:53:00,
2013-10-03 23:59:00,-999.0,-99.9,31.75,SSE,158,5.8,6.3,-999,0.00,,,0.00,meteobridge,2013-10-04 03:59:00,